Santiago de Chile, Chile

12:08 PM CLST en Octubre 30, 2014 (GMT -0300)
Pudahuel Bezanilla Solar | Change Station
CLOSE
Current Station
Estación meteorológica personal
Location: Santiago, REGIóN METROPOLITANA DE SANTIAGO
Altura: 1535 ft
Estaciones meteorológicas cercanas

Alt 1535 ft 33.43 °S, 70.82 °W | Updated 2 seconds ago

Clear
Despejado
65.1 ° F
Sensación térmica 65.1 ° F
N
7.4
Viento Variable Viento desde NNO
Gusts 9.8 mph

Hoy
Alta -- | Baja -- ° F
--% Posibilidad de precipitaciones
Ayer
Alta -- | Baja -- ° F
Precip. -- pul
6:45 AM 8:08 PM
Creciente, 44% visible
Presión 30.04 pul
Visibilidad -9999.0 Millas
Nubes
Punto de rocío 49 ° F
Humedad 55%
Precipitaciones 0.00 pul
Espesor de la nieve No disponible.
UV 5.0 de una escala de 12
Polen No disponible.
Calidad del aire No disponible.
Flu Activity No disponible.
METAR SCEL 301500Z VRB05KT CAVOK 18/06 Q1017 NOSIG

More Conditions Fewer Conditions

Presión 30.04 pul
Visibilidad -9999.0 Millas
Nubes
Punto de rocío 49 ° F
Humedad 55%
Precipitaciones 0.00 pul
Espesor de la nieve No disponible.
UV 5.0 de una escala de 12
Polen No disponible.
Calidad del aire No disponible.
Flu Activity No disponible.
METAR SCEL 301500Z VRB05KT CAVOK 18/06 Q1017 NOSIG

More Conditions Fewer Conditions

10-Day Weather Forecast

Almanac

Astronomía

Oct. 30, 2014 Salida Puesta
Hora real
Crepúsculo civil
Crepúsculo náutico
Crepúsculo astronómico
Luna
Horas de luz
Horas de luz
Tomorrow will be .
, % of the Moon is Illuminated

Extremos de hoy

Máximos del país Bajas del país

Community

WunderPhotos

Upload Photos

1,766,387 ¡fotos cargadas!

WunderBlogs® & News

Nearby

Calidad del aire

  Calidad del aire Índice AQ Contaminante
Not available.

Grosos de nieve

Estación Profundido Altura

Actividad de terremotos

Ciudad Distance Mag. Tiempo y dato
Magnitud mínima muestra es 2,5.

Temperaturas de aguas costeras

Lugar Temperatura

Estaciones meteorológicas cercanas